Time;durP1;ratioP1;P1;durP2;ratioP2;P2;SDS_P1;SDS_P2;PMS_P1;PMS_P2;Temp;Humidity;BMP_temperature;BMP_pressure;BME280_temperature;BME280_humidity;BME280_pressure;Samples;Min_cycle;Max_cycle;Signal;HPM_P1;HPM_P2
2022/05/10 00:00:32;;;;;;;7.63;5.63;;;;;;;;;;5074172;28;20036;-62
2022/05/10 00:03:01;;;;;;;7.05;5.47;;;;;;;;;;5073634;28;20513;-68
2022/05/10 00:05:32;;;;;;;8.25;5.60;;;;;;;;;;5073716;28;20032;-67
2022/05/10 00:08:00;;;;;;;8.27;5.70;;;;;;;;;;5073800;28;20060;-68
2022/05/10 00:10:25;;;;;;;8.18;5.80;;;;;;;;;;5073920;28;20056;-66
2022/05/10 00:12:52;;;;;;;8.38;5.82;;;;;;;;;;5073934;28;20036;-65
2022/05/10 00:15:17;;;;;;;7.93;5.50;;;;;;;;;;5073430;28;20030;-67
2022/05/10 00:17:43;;;;;;;14.05;5.75;;;;;;;;;;5073414;28;20112;-51
2022/05/10 00:20:17;;;;;;;8.55;5.68;;;;;;;;;;5073481;28;20024;-48
2022/05/10 00:22:43;;;;;;;8.35;6.05;;;;;;;;;;5073457;28;20035;-67
2022/05/10 00:25:11;;;;;;;7.80;5.88;;;;;;;;;;5073330;28;20024;-66
2022/05/10 00:27:36;;;;;;;6.47;5.32;;;;;;;;;;5073315;28;20028;-67
2022/05/10 00:30:02;;;;;;;8.05;5.43;;;;;;;;;;5073496;28;20020;-66
2022/05/10 00:32:31;;;;;;;7.40;5.55;;;;;;;;;;5073489;28;20066;-67
2022/05/10 00:34:57;;;;;;;8.77;5.55;;;;;;;;;;5073053;28;20073;-67
2022/05/10 00:37:24;;;;;;;7.65;5.20;;;;;;;;;;5073416;28;20074;-67
2022/05/10 00:39:50;;;;;;;8.95;6.00;;;;;;;;;;5073329;28;20081;-67
2022/05/10 00:42:22;;;;;;;6.88;5.38;;;;;;;;;;5073271;28;20024;-66
2022/05/10 00:44:58;;;;;;;9.55;5.60;;;;;;;;;;5072966;28;20473;-67
2022/05/10 00:47:30;;;;;;;6.55;5.43;;;;;;;;;;5072889;28;20070;-66
2022/05/10 00:50:04;;;;;;;7.80;5.57;;;;;;;;;;5073151;28;20643;-68
2022/05/10 00:53:01;;;;;;;7.05;5.35;;;;;;;;;;5072793;28;20067;-67
2022/05/10 00:55:32;;;;;;;7.93;5.32;;;;;;;;;;5072751;28;20138;-68
2022/05/10 00:58:07;;;;;;;7.65;5.35;;;;;;;;;;5073024;28;20053;-67
2022/05/10 01:00:33;;;;;;;10.02;5.47;;;;;;;;;;5073046;28;20028;-64
2022/05/10 01:03:10;;;;;;;7.75;5.80;;;;;;;;;;5072442;28;20408;-68
2022/05/10 01:05:56;;;;;;;7.25;6.07;;;;;;;;;;5072927;28;20029;-68
2022/05/10 01:08:28;;;;;;;7.30;5.60;;;;;;;;;;5072669;28;20081;-67
2022/05/10 01:11:10;;;;;;;7.13;5.50;;;;;;;;;;5072847;28;20107;-68
2022/05/10 01:13:41;;;;;;;7.85;5.70;;;;;;;;;;5072811;28;20024;-68
2022/05/10 01:16:12;;;;;;;7.88;5.45;;;;;;;;;;5072847;28;20077;-70
2022/05/10 01:18:38;;;;;;;;;;;;;;;;;;5072967;28;20480;-67
2022/05/10 01:21:38;;;;;;;5.65;4.47;;;;;;;;;;5072831;28;20316;-68
2022/05/10 01:24:38;;;;;;;9.03;5.50;;;;;;;;;;5072775;28;20052;-63
2022/05/10 01:27:19;;;;;;;;;;;;;;;;;;5073194;28;20043;-68
2022/05/10 01:29:53;;;;;;;;;;;;;;;;;;5072910;28;20334;-68
2022/05/10 01:35:18;;;;;;;24.15;6.93;;;;;;;;;;5072398;28;20036;-69
2022/05/10 01:37:50;;;;;;;11.93;6.53;;;;;;;;;;5072591;28;20108;-67
2022/05/10 01:40:29;;;;;;;7.30;6.20;;;;;;;;;;5072615;28;20064;-67
2022/05/10 01:43:03;;;;;;;8.55;6.50;;;;;;;;;;5072571;28;20110;-67
2022/05/10 01:45:39;;;;;;;12.70;6.88;;;;;;;;;;5072610;28;20060;-68
2022/05/10 01:48:09;;;;;;;9.25;6.70;;;;;;;;;;5055060;28;20031;-68
2022/05/10 01:51:02;;;;;;;9.13;6.47;;;;;;;;;;5072578;28;20021;-69
2022/05/10 01:53:36;;;;;;;14.40;6.43;;;;;;;;;;5072517;28;20055;-61
2022/05/10 01:56:10;;;;;;;7.38;5.68;;;;;;;;;;5072387;28;20033;-56
2022/05/10 01:58:39;;;;;;;10.20;6.10;;;;;;;;;;5072168;28;20598;-67
2022/05/10 02:01:32;;;;;;;8.75;6.55;;;;;;;;;;5072089;28;20064;-61
2022/05/10 02:04:18;;;;;;;8.13;6.35;;;;;;;;;;5068900;28;20388;-67
2022/05/10 02:06:57;;;;;;;8.38;7.03;;;;;;;;;;5072036;28;20021;-62
2022/05/10 02:09:37;;;;;;;7.53;5.93;;;;;;;;;;5072321;28;20033;-67
2022/05/10 02:12:02;;;;;;;;;;;;;;;;;;5072428;28;20047;-65
2022/05/10 02:14:37;;;;;;;7.40;5.67;;;;;;;;;;5074766;28;20363;-64
2022/05/10 02:17:11;;;;;;;8.18;5.68;;;;;;;;;;5076012;28;20254;-68
2022/05/10 02:19:45;;;;;;;9.15;6.40;;;;;;;;;;5075699;28;20024;-60
2022/05/10 02:22:16;;;;;;;10.10;6.15;;;;;;;;;;5075683;28;20029;-63
2022/05/10 02:24:58;;;;;;;7.63;5.55;;;;;;;;;;5075944;28;20032;-66
2022/05/10 02:27:37;;;;;;;10.57;6.45;;;;;;;;;;5075957;28;20103;-68
2022/05/10 02:30:12;;;;;;;8.68;5.90;;;;;;;;;;5075827;28;20108;-55
2022/05/10 02:35:27;;;;;;;9.63;5.90;;;;;;;;;;5075579;28;20510;-61
2022/05/10 02:37:53;;;;;;;8.55;6.15;;;;;;;;;;5075723;28;20032;-66
2022/05/10 02:40:18;;;;;;;11.68;5.85;;;;;;;;;;5075641;28;20037;-68
2022/05/10 02:42:48;;;;;;;8.85;6.05;;;;;;;;;;5075672;28;20031;-60
2022/05/10 02:45:18;;;;;;;;;;;;;;;;;;5076025;28;20021;-67
2022/05/10 02:47:45;;;;;;;10.05;6.18;;;;;;;;;;5075590;28;19912;-59
2022/05/10 02:50:21;;;;;;;8.80;6.43;;;;;;;;;;5075531;28;20020;-56
2022/05/10 02:52:46;;;;;;;10.38;6.32;;;;;;;;;;5075547;28;20024;-67
2022/05/10 02:55:17;;;;;;;8.27;6.53;;;;;;;;;;5075314;28;20041;-63
2022/05/10 02:57:44;;;;;;;8.32;5.70;;;;;;;;;;5075434;28;20028;-64
2022/05/10 03:00:10;;;;;;;9.25;5.60;;;;;;;;;;5074938;28;20046;-60
2022/05/10 03:02:41;;;;;;;7.85;6.13;;;;;;;;;;5074976;28;20049;-62
2022/05/10 03:05:08;;;;;;;8.35;6.15;;;;;;;;;;5075207;28;20388;-68
2022/05/10 03:07:33;;;;;;;7.63;6.38;;;;;;;;;;5074984;28;20024;-55
2022/05/10 03:09:59;;;;;;;7.13;5.90;;;;;;;;;;5075125;28;20523;-66
2022/05/10 03:12:24;;;;;;;10.55;6.55;;;;;;;;;;5075127;28;20417;-68
2022/05/10 03:14:50;;;;;;;9.48;6.20;;;;;;;;;;5074678;28;20028;-63
2022/05/10 03:17:15;;;;;;;8.68;6.10;;;;;;;;;;5074656;28;20029;-63
2022/05/10 03:19:42;;;;;;;8.25;6.00;;;;;;;;;;5074959;28;20031;-68
2022/05/10 03:22:09;;;;;;;8.63;6.07;;;;;;;;;;5074692;28;20027;-68
2022/05/10 03:24:34;;;;;;;8.80;6.22;;;;;;;;;;5073925;28;20032;-69
2022/05/10 03:27:02;;;;;;;7.28;5.30;;;;;;;;;;5074457;28;20375;-68
2022/05/10 03:29:28;;;;;;;8.00;5.97;;;;;;;;;;5074444;28;20024;-68
2022/05/10 03:31:55;;;;;;;8.68;5.95;;;;;;;;;;5074770;28;20025;-68
2022/05/10 03:37:05;;;;;;;7.93;5.82;;;;;;;;;;5074691;28;20380;-69
2022/05/10 03:39:30;;;;;;;6.07;5.22;;;;;;;;;;5074538;28;20160;-69
2022/05/10 03:41:56;;;;;;;8.65;6.00;;;;;;;;;;5074196;28;20070;-68
2022/05/10 03:44:21;;;;;;;7.45;5.38;;;;;;;;;;5074152;28;20037;-68
2022/05/10 03:46:47;;;;;;;10.90;5.75;;;;;;;;;;5074329;28;20116;-68
2022/05/10 03:49:14;;;;;;;8.32;5.25;;;;;;;;;;5074307;28;20361;-65
2022/05/10 03:51:39;;;;;;;6.97;5.47;;;;;;;;;;5073988;28;20029;-68
2022/05/10 03:54:05;;;;;;;11.77;5.43;;;;;;;;;;5074240;28;20028;-58
2022/05/10 03:56:30;;;;;;;17.35;6.22;;;;;;;;;;5073987;28;20028;-67
2022/05/10 03:58:57;;;;;;;13.57;6.07;;;;;;;;;;5074264;28;20108;-66
2022/05/10 04:01:22;;;;;;;9.63;5.80;;;;;;;;;;5073810;28;20144;-67
2022/05/10 04:03:49;;;;;;;7.60;5.75;;;;;;;;;;5074077;28;20425;-67
2022/05/10 04:06:15;;;;;;;7.43;5.30;;;;;;;;;;5073734;28;20472;-67
2022/05/10 04:08:41;;;;;;;8.98;5.43;;;;;;;;;;5056103;28;20093;-64
2022/05/10 04:11:09;;;;;;;6.70;5.25;;;;;;;;;;5073614;28;20544;-59
2022/05/10 04:13:35;;;;;;;5.85;4.80;;;;;;;;;;5073896;28;20044;-69
2022/05/10 04:16:00;;;;;;;5.60;3.72;;;;;;;;;;5073749;28;20079;-67
2022/05/10 04:18:27;;;;;;;5.13;4.00;;;;;;;;;;5073824;28;20024;-66
2022/05/10 04:20:53;;;;;;;7.28;4.00;;;;;;;;;;5073411;28;20044;-68
2022/05/10 04:23:18;;;;;;;6.47;4.60;;;;;;;;;;5073813;28;20025;-66
2022/05/10 04:25:44;;;;;;;5.40;4.28;;;;;;;;;;5073375;28;20028;-66
2022/05/10 04:28:10;;;;;;;5.50;3.53;;;;;;;;;;5073295;28;20032;-61
2022/05/10 04:30:35;;;;;;;4.93;3.45;;;;;;;;;;5073574;28;20078;-69
2022/05/10 04:33:01;;;;;;;3.78;3.30;;;;;;;;;;5073372;28;20056;-69
2022/05/10 04:35:26;;;;;;;6.03;3.83;;;;;;;;;;5073393;28;20070;-58
2022/05/10 04:37:55;;;;;;;4.78;3.75;;;;;;;;;;5072848;28;20020;-64
2022/05/10 04:43:05;;;;;;;3.17;2.88;;;;;;;;;;5073436;28;20039;-70
2022/05/10 04:45:32;;;;;;;2.67;2.13;;;;;;;;;;5055407;28;20031;-68
2022/05/10 04:47:57;;;;;;;3.30;3.00;;;;;;;;;;5073206;28;20087;-69
2022/05/10 04:50:23;;;;;;;7.93;2.38;;;;;;;;;;5073164;28;20020;-66
2022/05/10 04:52:48;;;;;;;4.97;3.65;;;;;;;;;;5054950;28;20024;-57
2022/05/10 04:55:14;;;;;;;2.15;1.95;;;;;;;;;;5072685;28;20035;-58
2022/05/10 04:57:41;;;;;;;5.95;3.97;;;;;;;;;;5072831;28;20029;-60
2022/05/10 05:00:09;;;;;;;5.03;3.45;;;;;;;;;;5072777;28;20052;-65
2022/05/10 05:02:35;;;;;;;10.27;2.65;;;;;;;;;;5054662;28;20045;-69
2022/05/10 05:05:00;;;;;;;4.30;2.53;;;;;;;;;;5072752;28;20400;-60
2022/05/10 05:07:26;;;;;;;9.70;3.25;;;;;;;;;;5055144;28;20035;-57
2022/05/10 05:09:51;;;;;;;4.32;3.00;;;;;;;;;;5072132;28;20028;-69
2022/05/10 05:12:17;;;;;;;4.57;2.67;;;;;;;;;;5070652;28;20028;-58
2022/05/10 05:14:42;;;;;;;1.95;1.70;;;;;;;;;;5070395;28;20500;-48
2022/05/10 05:17:07;;;;;;;3.45;3.00;;;;;;;;;;5071320;28;20021;-70
2022/05/10 05:19:33;;;;;;;2.63;2.22;;;;;;;;;;5071658;28;20025;-55
2022/05/10 05:21:59;;;;;;;4.95;3.33;;;;;;;;;;5072198;28;20032;-62
2022/05/10 05:24:24;;;;;;;5.80;2.83;;;;;;;;;;5071847;28;20032;-53
2022/05/10 05:26:52;;;;;;;6.68;3.42;;;;;;;;;;5072301;28;20149;-59
2022/05/10 05:29:18;;;;;;;5.00;4.18;;;;;;;;;;5072510;28;20032;-60
2022/05/10 05:31:44;;;;;;;4.75;3.60;;;;;;;;;;5072579;28;20361;-68
2022/05/10 05:34:09;;;;;;;5.68;3.03;;;;;;;;;;5071685;28;20358;-53
2022/05/10 05:36:35;;;;;;;3.38;3.08;;;;;;;;;;5071439;28;20028;-61
2022/05/10 05:39:00;;;;;;;4.28;2.58;;;;;;;;;;5070355;28;20028;-57
2022/05/10 05:41:25;;;;;;;7.35;2.33;;;;;;;;;;5071267;28;20027;-71
2022/05/10 05:43:51;;;;;;;2.15;1.92;;;;;;;;;;5048122;28;20040;-67
2022/05/10 05:46:16;;;;;;;3.40;2.50;;;;;;;;;;5071862;28;20024;-67
2022/05/10 05:48:42;;;;;;;2.28;2.08;;;;;;;;;;5071498;28;20420;-66
2022/05/10 05:51:08;;;;;;;3.08;2.78;;;;;;;;;;5075107;28;20414;-70
2022/05/10 05:53:33;;;;;;;4.57;2.70;;;;;;;;;;5075255;28;20020;-68
2022/05/10 05:56:05;;;;;;;4.57;2.40;;;;;;;;;;5073528;28;20361;-70
2022/05/10 05:58:31;;;;;;;5.97;2.65;;;;;;;;;;5076011;28;20559;-60
2022/05/10 06:00:56;;;;;;;3.67;2.42;;;;;;;;;;5059588;28;20243;-59
2022/05/10 06:03:22;;;;;;;2.53;2.22;;;;;;;;;;5063157;28;20498;-59
2022/05/10 06:05:49;;;;;;;4.20;2.50;;;;;;;;;;5066130;28;20356;-56
2022/05/10 06:08:16;;;;;;;6.35;3.30;;;;;;;;;;5064120;28;20029;-59
2022/05/10 06:10:42;;;;;;;2.63;2.40;;;;;;;;;;5064390;28;20043;-66
2022/05/10 06:13:09;;;;;;;4.43;3.10;;;;;;;;;;5069077;28;20056;-54
2022/05/10 06:15:36;;;;;;;2.67;2.28;;;;;;;;;;5075850;28;20419;-59
2022/05/10 06:18:04;;;;;;;3.28;2.80;;;;;;;;;;5076000;28;20040;-63
2022/05/10 06:20:30;;;;;;;3.78;2.70;;;;;;;;;;5075669;28;20086;-58
2022/05/10 06:22:55;;;;;;;4.78;2.33;;;;;;;;;;5075945;28;20021;-57
2022/05/10 06:25:23;;;;;;;2.47;2.28;;;;;;;;;;5076040;28;20052;-55
2022/05/10 06:27:51;;;;;;;2.70;2.45;;;;;;;;;;5075619;28;20031;-68
2022/05/10 06:30:18;;;;;;;2.92;2.28;;;;;;;;;;5075336;28;20035;-66
2022/05/10 06:32:43;;;;;;;2.50;2.30;;;;;;;;;;5075763;28;20021;-57
2022/05/10 06:35:09;;;;;;;5.60;2.80;;;;;;;;;;5075305;28;20036;-60
2022/05/10 06:40:19;;;;;;;4.88;2.15;;;;;;;;;;5075623;28;20032;-65
2022/05/10 06:42:44;;;;;;;2.60;2.30;;;;;;;;;;5075275;28;20036;-61
2022/05/10 06:45:13;;;;;;;2.78;2.10;;;;;;;;;;5075556;28;20024;-58
2022/05/10 06:47:42;;;;;;;5.80;2.00;;;;;;;;;;5075429;28;20029;-57
2022/05/10 06:50:11;;;;;;;6.07;2.30;;;;;;;;;;5073870;28;20586;-58
2022/05/10 06:52:36;;;;;;;2.45;2.25;;;;;;;;;;5075068;28;20031;-66
2022/05/10 06:55:03;;;;;;;2.13;1.83;;;;;;;;;;5057540;28;20033;-67
2022/05/10 06:57:28;;;;;;;3.50;3.20;;;;;;;;;;5075096;28;20067;-63
2022/05/10 06:59:54;;;;;;;5.43;1.85;;;;;;;;;;5073223;28;20048;-57
2022/05/10 07:02:21;;;;;;;2.60;2.40;;;;;;;;;;5073726;28;20462;-67
2022/05/10 07:04:46;;;;;;;2.85;1.38;;;;;;;;;;5074821;28;20020;-53
2022/05/10 07:07:11;;;;;;;2.67;2.20;;;;;;;;;;5074547;28;20495;-50
2022/05/10 07:09:37;;;;;;;2.30;2.08;;;;;;;;;;5056745;28;20028;-67
2022/05/10 07:12:02;;;;;;;3.22;2.13;;;;;;;;;;5074499;28;20096;-67
2022/05/10 07:14:28;;;;;;;2.97;2.10;;;;;;;;;;5074727;28;20020;-66
2022/05/10 07:16:53;;;;;;;4.93;2.38;;;;;;;;;;5074933;28;20020;-63
2022/05/10 07:19:19;;;;;;;1.70;1.60;;;;;;;;;;5057040;28;20104;-61
2022/05/10 07:21:45;;;;;;;3.20;2.67;;;;;;;;;;5074535;28;20021;-67
2022/05/10 07:24:10;;;;;;;4.50;2.28;;;;;;;;;;5074599;28;20090;-64
2022/05/10 07:26:36;;;;;;;1.98;1.77;;;;;;;;;;5074864;28;20024;-63
2022/05/10 07:29:01;;;;;;;5.90;3.17;;;;;;;;;;5074528;28;20112;-63
2022/05/10 07:31:27;;;;;;;2.05;1.55;;;;;;;;;;5074763;28;20479;-66
2022/05/10 07:33:52;;;;;;;3.63;2.13;;;;;;;;;;5074679;28;20460;-65
2022/05/10 07:36:24;;;;;;;2.40;2.20;;;;;;;;;;5074420;28;20396;-61
2022/05/10 07:38:49;;;;;;;3.47;3.17;;;;;;;;;;5074482;28;20443;-60
2022/05/10 07:41:18;;;;;;;3.45;2.65;;;;;;;;;;5055624;28;20120;-65
2022/05/10 07:43:44;;;;;;;2.50;2.30;;;;;;;;;;5074445;28;20027;-58
2022/05/10 07:46:10;;;;;;;1.60;1.50;;;;;;;;;;5074574;28;20032;-69
2022/05/10 07:48:36;;;;;;;2.33;2.13;;;;;;;;;;5074407;28;20372;-58
2022/05/10 07:51:02;;;;;;;3.90;2.40;;;;;;;;;;5074400;28;20426;-61
2022/05/10 07:53:28;;;;;;;3.42;3.10;;;;;;;;;;5074292;28;20028;-62
2022/05/10 07:55:53;;;;;;;1.80;1.70;;;;;;;;;;5073998;28;20384;-67
2022/05/10 07:58:19;;;;;;;1.48;1.38;;;;;;;;;;5073866;28;20073;-68
2022/05/10 08:00:45;;;;;;;3.42;2.10;;;;;;;;;;5074130;28;20028;-55
2022/05/10 08:03:13;;;;;;;2.55;1.88;;;;;;;;;;5055957;28;20036;-65
2022/05/10 08:05:39;;;;;;;2.17;1.98;;;;;;;;;;5074008;28;20033;-67
2022/05/10 08:08:05;;;;;;;3.63;2.08;;;;;;;;;;5073950;28;20031;-64
2022/05/10 08:10:30;;;;;;;1.95;1.75;;;;;;;;;;5073662;28;20036;-63
2022/05/10 08:12:56;;;;;;;4.68;2.03;;;;;;;;;;5073133;28;20078;-67
2022/05/10 08:15:21;;;;;;;4.03;1.60;;;;;;;;;;5073795;28;20032;-61
2022/05/10 08:17:47;;;;;;;2.42;1.77;;;;;;;;;;5073899;28;20028;-69
2022/05/10 08:20:13;;;;;;;3.50;2.40;;;;;;;;;;5073843;28;20387;-69
2022/05/10 08:22:38;;;;;;;2.67;1.83;;;;;;;;;;5073757;28;20027;-67
2022/05/10 08:25:07;;;;;;;2.83;2.53;;;;;;;;;;5073474;28;20043;-67
2022/05/10 08:27:33;;;;;;;2.20;1.73;;;;;;;;;;5073412;28;20021;-62
2022/05/10 08:29:58;;;;;;;3.08;2.35;;;;;;;;;;5073622;28;20035;-62
2022/05/10 08:32:24;;;;;;;3.78;2.25;;;;;;;;;;5073610;28;20486;-66
2022/05/10 08:34:49;;;;;;;3.30;2.70;;;;;;;;;;5073269;28;20048;-63
2022/05/10 08:37:14;;;;;;;2.70;2.50;;;;;;;;;;5073008;28;20023;-55
2022/05/10 08:39:40;;;;;;;2.05;1.60;;;;;;;;;;5073136;28;20020;-67
2022/05/10 08:42:41;;;;;;;2.90;2.60;;;;;;;;;;5073295;28;20032;-66
2022/05/10 08:45:09;;;;;;;1.90;1.75;;;;;;;;;;5028289;28;20036;-63
2022/05/10 08:47:36;;;;;;;1.63;1.52;;;;;;;;;;5073225;28;20044;-66
2022/05/10 08:50:09;;;;;;;2.20;2.00;;;;;;;;;;5073206;28;20493;-67
2022/05/10 08:52:37;;;;;;;5.53;2.65;;;;;;;;;;5073102;28;20052;-58
2022/05/10 08:55:04;;;;;;;2.85;2.30;;;;;;;;;;5073013;28;20032;-65
2022/05/10 08:57:48;;;;;;;2.83;2.45;;;;;;;;;;5073105;28;20021;-65
2022/05/10 09:00:31;;;;;;;3.53;2.60;;;;;;;;;;5073014;28;20112;-65
2022/05/10 09:02:59;;;;;;;2.17;1.98;;;;;;;;;;5072461;28;20040;-65
2022/05/10 09:05:39;;;;;;;3.03;2.42;;;;;;;;;;5072393;28;20492;-60
2022/05/10 09:08:30;;;;;;;7.18;2.45;;;;;;;;;;5072616;28;20118;-64
2022/05/10 09:10:59;;;;;;;4.15;2.70;;;;;;;;;;5072865;28;20056;-66
2022/05/10 09:13:25;;;;;;;3.05;2.38;;;;;;;;;;5072492;28;20024;-67
2022/05/10 09:15:59;;;;;;;2.50;2.30;;;;;;;;;;5072695;28;20041;-64
2022/05/10 09:18:30;;;;;;;4.63;2.10;;;;;;;;;;5072752;28;20032;-67
2022/05/10 09:21:11;;;;;;;2.13;1.95;;;;;;;;;;5072444;28;20504;-66
2022/05/10 09:23:58;;;;;;;2.80;1.98;;;;;;;;;;5072361;28;20070;-65
2022/05/10 09:26:36;;;;;;;2.33;1.85;;;;;;;;;;5072759;28;20056;-66
2022/05/10 09:29:33;;;;;;;3.83;2.35;;;;;;;;;;5072399;28;20063;-66
2022/05/10 09:35:00;;;;;;;4.82;2.50;;;;;;;;;;5072535;28;20545;-67
2022/05/10 09:37:26;;;;;;;6.20;2.22;;;;;;;;;;5072401;28;20060;-68
2022/05/10 09:39:57;;;;;;;2.67;2.40;;;;;;;;;;5072360;28;20058;-68
2022/05/10 09:42:28;;;;;;;1.55;1.45;;;;;;;;;;5072568;28;20028;-67
2022/05/10 09:45:06;;;;;;;1.88;1.65;;;;;;;;;;5072335;28;20048;-67
2022/05/10 09:47:32;;;;;;;2.70;2.42;;;;;;;;;;5072496;28;20031;-67
2022/05/10 09:50:20;;;;;;;3.05;2.20;;;;;;;;;;5072416;28;20046;-60
2022/05/10 09:52:47;;;;;;;2.42;2.20;;;;;;;;;;5072547;28;20075;-68
2022/05/10 09:55:26;;;;;;;2.72;2.30;;;;;;;;;;5072340;28;20387;-68
2022/05/10 09:57:54;;;;;;;2.67;2.30;;;;;;;;;;5054579;28;20070;-64
2022/05/10 10:00:38;;;;;;;3.35;2.17;;;;;;;;;;5072077;28;20714;-69
2022/05/10 10:03:04;;;;;;;4.28;2.90;;;;;;;;;;5054382;28;20064;-69
2022/05/10 10:05:32;;;;;;;2.45;2.05;;;;;;;;;;5072105;28;20408;-59
2022/05/10 10:07:58;;;;;;;2.95;2.03;;;;;;;;;;5072014;28;20029;-64
2022/05/10 10:10:33;;;;;;;3.33;2.40;;;;;;;;;;5072225;28;20074;-67
2022/05/10 10:12:59;;;;;;;2.38;2.17;;;;;;;;;;5071911;28;20067;-68
2022/05/10 10:15:41;;;;;;;2.17;2.00;;;;;;;;;;5071877;28;20031;-68
2022/05/10 10:18:09;;;;;;;2.13;1.83;;;;;;;;;;5072278;28;20047;-67
2022/05/10 10:20:56;;;;;;;1.27;1.13;;;;;;;;;;5072145;28;20056;-68
2022/05/10 10:23:43;;;;;;;2.28;2.13;;;;;;;;;;5072211;28;20024;-67
2022/05/10 10:26:32;;;;;;;4.03;2.30;;;;;;;;;;5072030;28;20078;-64
2022/05/10 10:29:19;;;;;;;5.75;2.50;;;;;;;;;;5071713;28;20466;-68
2022/05/10 10:31:52;;;;;;;4.68;3.58;;;;;;;;;;5071752;28;20434;-68
2022/05/10 10:34:23;;;;;;;4.50;2.30;;;;;;;;;;5072657;28;20021;-66
2022/05/10 10:36:53;;;;;;;3.03;2.70;;;;;;;;;;5075659;28;20029;-66
2022/05/10 10:39:32;;;;;;;6.03;3.78;;;;;;;;;;5072149;28;20029;-56
2022/05/10 10:42:19;;;;;;;3.22;2.63;;;;;;;;;;5074253;28;20032;-67
2022/05/10 10:44:53;;;;;;;3.25;2.15;;;;;;;;;;5071158;28;20056;-69
2022/05/10 10:47:34;;;;;;;3.83;2.85;;;;;;;;;;5073954;28;20043;-68
2022/05/10 10:50:29;;;;;;;2.58;2.28;;;;;;;;;;5073610;28;20488;-61
2022/05/10 10:52:58;;;;;;;2.63;2.30;;;;;;;;;;5073137;28;20033;-68
2022/05/10 10:55:48;;;;;;;3.17;2.30;;;;;;;;;;5073399;28;20032;-68
2022/05/10 10:58:33;;;;;;;4.55;2.28;;;;;;;;;;5073436;28;20025;-69
2022/05/10 11:01:29;;;;;;;3.47;2.58;;;;;;;;;;5073386;28;20028;-69
2022/05/10 11:04:12;;;;;;;4.22;2.30;;;;;;;;;;5073551;28;20094;-64
2022/05/10 11:06:51;;;;;;;1.63;1.52;;;;;;;;;;5073318;28;20035;-56
2022/05/10 11:09:37;;;;;;;2.47;1.88;;;;;;;;;;5073568;28;20037;-53
2022/05/10 11:12:20;;;;;;;6.35;2.10;;;;;;;;;;5073212;28;20024;-67
2022/05/10 11:14:57;;;;;;;5.32;2.47;;;;;;;;;;5073171;28;20054;-57
2022/05/10 11:17:41;;;;;;;3.05;2.00;;;;;;;;;;5073423;28;20029;-66
2022/05/10 11:20:34;;;;;;;3.45;2.00;;;;;;;;;;5073489;28;20070;-62
2022/05/10 11:23:06;;;;;;;3.25;2.15;;;;;;;;;;5073056;28;20024;-65
2022/05/10 11:25:58;;;;;;;3.28;2.90;;;;;;;;;;5073096;28;20027;-61
2022/05/10 11:28:38;;;;;;;9.60;3.20;;;;;;;;;;5073158;28;20482;-63
2022/05/10 11:31:14;;;;;;;7.22;2.20;;;;;;;;;;5072973;28;20025;-52
2022/05/10 11:34:13;;;;;;;14.73;5.82;;;;;;;;;;5072657;28;20056;-65
2022/05/10 11:36:48;;;;;;;6.00;3.47;;;;;;;;;;5073141;28;20036;-67
2022/05/10 11:39:44;;;;;;;4.20;2.03;;;;;;;;;;5073081;28;20370;-66
2022/05/10 11:42:23;;;;;;;3.22;2.30;;;;;;;;;;5073045;28;20055;-64
2022/05/10 11:45:12;;;;;;;2.38;2.17;;;;;;;;;;5072738;28;20028;-68
2022/05/10 11:48:00;;;;;;;2.38;2.20;;;;;;;;;;5072085;28;20392;-56
2022/05/10 11:53:51;;;;;;;;;;;;;;;;;;4991163;28;20049;-67
2022/05/10 11:56:17;;;;;;;16.10;7.50;;;;;;;;;;5068737;28;19954;-65
2022/05/10 11:58:44;;;;;;;8.98;5.03;;;;;;;;;;5072651;28;20059;-60
2022/05/10 12:01:39;;;;;;;6.28;4.45;;;;;;;;;;5072387;28;20101;-61
2022/05/10 12:04:05;;;;;;;4.18;2.63;;;;;;;;;;5072418;28;20036;-67
2022/05/10 12:06:33;;;;;;;10.00;4.28;;;;;;;;;;5072416;28;20033;-61
2022/05/10 12:09:04;;;;;;;6.35;3.53;;;;;;;;;;5072405;28;20029;-61
2022/05/10 12:11:32;;;;;;;3.75;2.13;;;;;;;;;;5072308;28;20486;-66
2022/05/10 12:22:20;;;;;;;2.45;2.17;;;;;;;;;;5072331;28;20035;-68
2022/05/10 12:24:50;;;;;;;10.37;5.07;;;;;;;;;;5072215;28;20433;-67
2022/05/10 12:27:16;;;;;;;5.85;3.25;;;;;;;;;;5072136;28;20431;-57
2022/05/10 12:29:41;;;;;;;4.50;3.08;;;;;;;;;;5072137;28;20043;-67
2022/05/10 12:32:41;;;;;;;11.35;4.68;;;;;;;;;;5071922;28;20075;-67
2022/05/10 12:35:18;;;;;;;8.48;3.92;;;;;;;;;;5071717;28;20032;-68
2022/05/10 12:37:54;;;;;;;12.70;5.28;;;;;;;;;;5071786;28;20029;-62
2022/05/10 12:40:32;;;;;;;7.15;4.30;;;;;;;;;;5071618;28;20029;-64
2022/05/10 12:43:00;;;;;;;3.67;2.72;;;;;;;;;;5071528;28;20107;-62
2022/05/10 12:46:24;;;;;;;5.57;2.38;;;;;;;;;;5071125;28;20029;-66
2022/05/10 12:49:22;;;;;;;4.03;2.50;;;;;;;;;;5008772;28;20058;-68
2022/05/10 12:52:13;;;;;;;5.70;2.30;;;;;;;;;;5071490;28;20041;-67
2022/05/10 12:54:43;;;;;;;2.40;2.20;;;;;;;;;;5070937;28;20041;-67
2022/05/10 12:57:33;;;;;;;3.55;3.00;;;;;;;;;;5070981;28;20137;-67
2022/05/10 13:00:11;;;;;;;6.95;3.65;;;;;;;;;;5071477;28;20028;-65
2022/05/10 13:02:40;;;;;;;4.97;3.70;;;;;;;;;;5071001;28;20045;-62
2022/05/10 13:05:13;;;;;;;10.07;4.50;;;;;;;;;;5071091;28;20543;-48
2022/05/10 13:07:50;;;;;;;4.80;3.03;;;;;;;;;;5071187;28;20123;-67
2022/05/10 13:10:20;;;;;;;3.72;2.33;;;;;;;;;;5071319;28;20084;-60
2022/05/10 13:13:21;;;;;;;3.90;3.20;;;;;;;;;;5071381;28;20705;-67
2022/05/10 13:15:48;;;;;;;6.28;3.67;;;;;;;;;;5070873;28;20112;-63
2022/05/10 13:18:20;;;;;;;6.20;2.72;;;;;;;;;;5071110;28;20036;-62
2022/05/10 13:20:58;;;;;;;4.88;2.30;;;;;;;;;;5071169;28;20070;-54
2022/05/10 13:23:29;;;;;;;4.00;2.67;;;;;;;;;;5071041;28;20038;-61
2022/05/10 13:26:06;;;;;;;3.35;2.75;;;;;;;;;;5071010;28;20711;-48
2022/05/10 13:28:32;;;;;;;9.15;2.97;;;;;;;;;;5071240;28;20032;-61
2022/05/10 13:31:00;;;;;;;4.13;2.28;;;;;;;;;;5070791;28;20030;-66
2022/05/10 13:33:35;;;;;;;9.73;3.85;;;;;;;;;;5071045;28;20060;-51
2022/05/10 13:36:07;;;;;;;3.08;2.47;;;;;;;;;;5069932;28;20475;-56
2022/05/10 13:38:54;;;;;;;3.10;2.75;;;;;;;;;;5070571;28;20024;-57
2022/05/10 13:41:38;;;;;;;3.97;2.28;;;;;;;;;;5070747;28;20029;-66
2022/05/10 13:44:07;;;;;;;2.08;1.98;;;;;;;;;;5070954;28;20075;-66
2022/05/10 13:46:44;;;;;;;5.10;3.27;;;;;;;;;;5070956;28;20123;-65
2022/05/10 13:49:15;;;;;;;4.20;2.30;;;;;;;;;;5071065;28;20641;-63
2022/05/10 13:51:52;;;;;;;2.28;2.08;;;;;;;;;;5070981;28;20032;-57
2022/05/10 13:54:30;;;;;;;2.10;1.90;;;;;;;;;;5070745;28;20040;-62
2022/05/10 13:57:25;;;;;;;4.53;2.15;;;;;;;;;;5070921;28;20033;-65
2022/05/10 13:59:59;;;;;;;2.67;2.03;;;;;;;;;;5070639;28;20035;-67
2022/05/10 14:02:27;;;;;;;5.75;3.28;;;;;;;;;;5070014;28;20127;-62
2022/05/10 14:04:54;;;;;;;5.30;2.85;;;;;;;;;;5069813;28;20031;-66
2022/05/10 14:07:27;;;;;;;10.25;2.13;;;;;;;;;;5069832;28;20024;-67
2022/05/10 14:09:54;;;;;;;4.10;2.22;;;;;;;;;;5070181;28;20031;-65
2022/05/10 14:12:33;;;;;;;4.40;1.88;;;;;;;;;;5073471;28;20016;-67
2022/05/10 14:15:27;;;;;;;3.00;2.25;;;;;;;;;;5073347;28;20115;-66
2022/05/10 14:18:32;;;;;;;3.58;1.88;;;;;;;;;;5073221;28;20166;-64
2022/05/10 14:21:22;;;;;;;2.95;2.00;;;;;;;;;;5010620;28;20109;-65
2022/05/10 14:23:48;;;;;;;4.88;1.95;;;;;;;;;;5070463;28;20036;-66
2022/05/10 14:26:28;;;;;;;2.50;1.75;;;;;;;;;;5073053;28;20036;-66
2022/05/10 14:28:55;;;;;;;2.70;1.83;;;;;;;;;;5073013;28;20090;-67
2022/05/10 14:31:35;;;;;;;2.10;1.90;;;;;;;;;;5073015;28;20357;-66
2022/05/10 14:34:02;;;;;;;3.92;1.80;;;;;;;;;;5073053;28;20028;-66
2022/05/10 14:36:46;;;;;;;3.28;2.20;;;;;;;;;;5072670;28;20040;-52
2022/05/10 14:39:37;;;;;;;1.88;1.70;;;;;;;;;;5073069;28;20031;-59
2022/05/10 14:42:05;;;;;;;1.75;1.65;;;;;;;;;;5068659;28;20455;-66
2022/05/10 14:44:43;;;;;;;1.83;1.73;;;;;;;;;;5072963;28;20036;-65
2022/05/10 14:47:22;;;;;;;4.18;2.00;;;;;;;;;;5072333;28;20051;-65
2022/05/10 14:49:48;;;;;;;5.88;2.20;;;;;;;;;;5072841;28;20071;-57
2022/05/10 14:52:19;;;;;;;1.90;1.80;;;;;;;;;;5072766;28;20028;-59
2022/05/10 14:54:45;;;;;;;2.20;1.73;;;;;;;;;;5072523;28;20388;-54
2022/05/10 14:57:19;;;;;;;2.55;2.10;;;;;;;;;;5072820;28;20029;-57
2022/05/10 14:59:52;;;;;;;2.70;1.90;;;;;;;;;;5072452;28;20032;-64
2022/05/10 15:02:26;;;;;;;40.00;3.38;;;;;;;;;;5031470;28;1169885;-66
2022/05/10 15:04:52;;;;;;;3.80;1.90;;;;;;;;;;5073677;28;20048;-66
2022/05/10 15:07:18;;;;;;;2.38;2.00;;;;;;;;;;5073506;28;20093;-66
2022/05/10 15:09:43;;;;;;;2.45;1.70;;;;;;;;;;5073514;28;20357;-61
2022/05/10 15:14:53;;;;;;;2.20;1.90;;;;;;;;;;5073214;28;20083;-55
2022/05/10 15:17:19;;;;;;;1.92;1.83;;;;;;;;;;5073521;28;20376;-56
2022/05/10 15:19:46;;;;;;;2.10;1.88;;;;;;;;;;5073321;28;20025;-57
2022/05/10 15:22:12;;;;;;;2.72;2.30;;;;;;;;;;5072958;28;20615;-60
2022/05/10 15:24:38;;;;;;;3.97;1.90;;;;;;;;;;5073271;28;20107;-55
2022/05/10 15:27:06;;;;;;;3.33;1.77;;;;;;;;;;5073137;28;20028;-56
2022/05/10 15:29:34;;;;;;;1.95;1.70;;;;;;;;;;5073346;28;20041;-52
2022/05/10 15:32:02;;;;;;;7.82;1.70;;;;;;;;;;5073224;28;20044;-64
2022/05/10 15:34:49;;;;;;;3.70;2.00;;;;;;;;;;5072585;28;20111;-60
2022/05/10 15:37:18;;;;;;;2.10;1.80;;;;;;;;;;5072912;28;20625;-47
2022/05/10 15:39:44;;;;;;;3.08;1.67;;;;;;;;;;5073206;28;20059;-49
2022/05/10 15:42:22;;;;;;;2.10;1.95;;;;;;;;;;5072878;28;20056;-62